createdAt,value
2023-02-20T00:01:52.218Z,12.05
2023-02-20T00:04:50.093Z,11.98
2023-02-20T00:07:47.571Z,11.95
2023-02-20T00:10:45.202Z,11.86
2023-02-20T00:13:42.648Z,11.73
2023-02-20T00:16:40.325Z,11.96
2023-02-20T00:19:37.754Z,12.02
2023-02-20T00:22:35.554Z,11.84
2023-02-20T00:25:32.995Z,11.20
2023-02-20T00:28:31.290Z,10.35
2023-02-20T00:31:28.838Z,9.69
2023-02-20T00:34:26.645Z,9.14
2023-02-20T00:37:24.421Z,8.91
2023-02-20T00:40:22.073Z,9.09
2023-02-20T00:43:19.712Z,9.03
2023-02-20T00:46:17.272Z,8.87
2023-02-20T00:49:15.065Z,8.70
2023-02-20T00:52:14.779Z,8.57
2023-02-20T00:55:12.748Z,8.49
2023-02-20T00:58:10.218Z,8.41
2023-02-20T01:01:07.885Z,8.31
2023-02-20T01:04:05.332Z,8.20
2023-02-20T01:07:02.969Z,8.17
2023-02-20T01:10:00.436Z,8.18
2023-02-20T01:12:58.215Z,8.15
2023-02-20T01:15:55.870Z,8.12
2023-02-20T01:18:53.366Z,8.10
2023-02-20T01:21:50.993Z,8.08
2023-02-20T01:24:48.430Z,8.06
2023-02-20T01:27:46.098Z,8.05
2023-02-20T01:30:43.556Z,8.02
2023-02-20T01:33:41.258Z,7.99
2023-02-20T01:36:38.911Z,7.95
2023-02-20T01:39:36.372Z,7.91
2023-02-20T01:42:34.167Z,7.86
2023-02-20T01:45:31.702Z,7.82
2023-02-20T01:48:29.444Z,7.83
2023-02-20T01:51:26.933Z,7.93
2023-02-20T01:54:24.715Z,7.94
2023-02-20T01:57:22.178Z,7.91
2023-02-20T02:00:21.067Z,7.87
2023-02-20T02:03:18.842Z,7.72
2023-02-20T02:06:16.299Z,7.53
2023-02-20T02:09:13.984Z,7.38
2023-02-20T02:12:11.460Z,8.08
2023-02-20T02:15:09.138Z,9.36
2023-02-20T02:18:06.950Z,9.95
2023-02-20T02:21:04.397Z,10.26
2023-02-20T02:24:02.177Z,10.66
2023-02-20T02:26:59.633Z,10.84
2023-02-20T02:29:57.335Z,10.74
2023-02-20T02:32:54.763Z,11.07
2023-02-20T02:35:52.421Z,11.91
2023-02-20T02:38:49.888Z,11.99
2023-02-20T02:41:47.582Z,12.56
2023-02-20T02:44:45.209Z,13.14
2023-02-20T02:47:42.687Z,13.50
2023-02-20T02:50:40.443Z,13.37
2023-02-20T02:53:37.904Z,12.20
2023-02-20T02:56:35.647Z,11.06
2023-02-20T02:59:33.774Z,10.16
2023-02-20T03:02:31.300Z,9.50
2023-02-20T03:05:40.738Z,8.92
2023-02-20T03:08:38.194Z,8.57
2023-02-20T03:11:35.879Z,9.05
2023-02-20T03:14:51.450Z,9.17
2023-02-20T03:17:49.070Z,9.03
2023-02-20T03:20:46.848Z,8.92
2023-02-20T03:23:44.324Z,8.79
2023-02-20T03:26:42.214Z,8.60
2023-02-20T03:29:39.677Z,8.33
2023-02-20T03:32:54.955Z,8.13
2023-02-20T03:36:10.650Z,7.99
2023-02-20T03:39:25.892Z,7.71
2023-02-20T03:42:41.501Z,7.49
2023-02-20T03:45:39.015Z,7.40
2023-02-20T03:48:36.945Z,7.28
2023-02-20T03:51:52.323Z,7.22
2023-02-20T03:54:49.796Z,7.13
2023-02-20T03:57:47.523Z,7.11
2023-02-20T04:00:44.995Z,7.04
2023-02-20T04:03:42.781Z,6.91
2023-02-20T04:06:40.273Z,6.80
2023-02-20T04:09:38.196Z,6.71
2023-02-20T04:12:35.964Z,6.62
2023-02-20T04:15:33.754Z,6.55
2023-02-20T04:18:31.766Z,6.52
2023-02-20T04:21:29.267Z,6.47
2023-02-20T04:24:27.038Z,6.36
2023-02-20T04:27:24.518Z,6.37
2023-02-20T04:30:22.259Z,6.45
2023-02-20T04:33:19.895Z,6.50
2023-02-20T04:36:17.354Z,6.53
2023-02-20T04:39:15.699Z,6.54
2023-02-20T04:42:13.147Z,6.46
2023-02-20T04:45:10.888Z,6.36
2023-02-20T04:48:08.366Z,6.28
2023-02-20T04:51:05.971Z,6.23
2023-02-20T04:54:03.427Z,6.21
2023-02-20T04:57:01.105Z,6.19
2023-02-20T04:59:58.539Z,6.14
2023-02-20T05:02:56.142Z,6.34
2023-02-20T05:05:53.780Z,6.94
2023-02-20T05:08:51.242Z,7.56
2023-02-20T05:11:49.099Z,7.76
2023-02-20T05:14:46.603Z,7.89
2023-02-20T05:17:45.227Z,8.15
2023-02-20T05:21:00.422Z,8.44
2023-02-20T05:23:58.073Z,8.59
2023-02-20T05:26:55.539Z,8.66
2023-02-20T05:29:53.351Z,8.52
2023-02-20T05:32:51.109Z,8.49
2023-02-20T05:35:48.560Z,8.78
2023-02-20T05:38:49.381Z,9.42
2023-02-20T05:41:46.867Z,9.86
2023-02-20T05:44:44.574Z,9.87
2023-02-20T05:47:42.226Z,9.84
2023-02-20T05:50:39.660Z,9.88
2023-02-20T05:53:37.453Z,9.85
2023-02-20T05:56:34.925Z,9.82
2023-02-20T05:59:32.673Z,9.89
2023-02-20T06:02:30.181Z,9.87
2023-02-20T06:05:28.626Z,9.64
2023-02-20T06:08:26.371Z,9.41
2023-02-20T06:11:23.830Z,9.25
2023-02-20T06:14:21.490Z,9.15
2023-02-20T06:17:18.993Z,9.19
2023-02-20T06:20:17.420Z,9.21
2023-02-20T06:23:14.915Z,9.16
2023-02-20T06:26:12.952Z,9.16
2023-02-20T06:29:10.912Z,9.30
2023-02-20T06:32:08.512Z,9.40
2023-02-20T06:35:06.444Z,9.44
2023-02-20T06:38:03.958Z,9.47
2023-02-20T06:41:01.716Z,9.74
2023-02-20T06:43:59.209Z,9.95
2023-02-20T06:46:57.054Z,10.20
2023-02-20T06:49:54.637Z,10.53
2023-02-20T06:52:52.802Z,10.95
2023-02-20T06:55:50.235Z,11.99
2023-02-20T06:58:47.855Z,12.82
2023-02-20T07:01:45.622Z,13.22
2023-02-20T07:04:43.071Z,13.68
2023-02-20T07:07:40.811Z,14.15
2023-02-20T07:10:38.256Z,14.14
2023-02-20T07:13:35.983Z,13.90
2023-02-20T07:16:33.404Z,12.95
2023-02-20T07:19:31.062Z,12.08
2023-02-20T07:22:28.725Z,11.43
2023-02-20T07:25:26.157Z,11.01
2023-02-20T07:28:23.791Z,10.73
2023-02-20T07:31:21.286Z,10.99
2023-02-20T07:34:18.913Z,12.22
2023-02-20T07:37:16.435Z,12.74
2023-02-20T07:40:14.130Z,13.79
2023-02-20T07:43:11.883Z,14.74
2023-02-20T07:46:09.428Z,14.87
2023-02-20T07:49:07.291Z,13.82
2023-02-20T07:52:04.742Z,12.84
2023-02-20T07:55:02.370Z,12.11
2023-02-20T07:57:59.795Z,11.53
2023-02-20T08:00:59.347Z,11.12
2023-02-20T08:03:56.849Z,11.34
2023-02-20T08:06:54.463Z,12.60
2023-02-20T08:09:52.274Z,12.95
2023-02-20T08:12:49.736Z,13.18
2023-02-20T08:15:49.034Z,13.25
2023-02-20T08:18:46.514Z,12.64
2023-02-20T08:21:44.200Z,11.99
2023-02-20T08:24:41.675Z,11.50
2023-02-20T08:27:40.149Z,11.16
2023-02-20T08:30:37.657Z,11.31
2023-02-20T08:33:35.450Z,12.89
2023-02-20T08:36:33.829Z,14.48
2023-02-20T08:39:31.294Z,14.82
2023-02-20T08:42:29.067Z,14.05
2023-02-20T08:45:26.535Z,13.44
2023-02-20T08:48:24.392Z,13.03
2023-02-20T08:51:22.148Z,12.66
2023-02-20T08:54:19.622Z,12.40
2023-02-20T08:57:17.909Z,12.23
2023-02-20T09:00:15.336Z,11.99
2023-02-20T09:03:13.025Z,11.86
2023-02-20T09:06:10.690Z,11.90
2023-02-20T09:09:09.138Z,12.07
2023-02-20T09:12:06.709Z,12.27
2023-02-20T09:15:04.782Z,12.49
2023-02-20T09:18:02.239Z,12.62
2023-02-20T09:20:59.871Z,12.62
2023-02-20T09:23:57.684Z,12.56
2023-02-20T09:26:56.913Z,12.51
2023-02-20T09:29:54.779Z,12.54
2023-02-20T09:32:52.305Z,12.62
2023-02-20T09:35:52.327Z,12.67
2023-02-20T09:38:49.746Z,12.59
2023-02-20T09:41:47.549Z,12.47
2023-02-20T09:44:45.255Z,12.33
2023-02-20T09:47:42.733Z,12.23
2023-02-20T09:50:40.361Z,12.14
2023-02-20T09:53:37.856Z,12.11
2023-02-20T09:56:35.499Z,12.08
2023-02-20T09:59:33.209Z,12.06
2023-02-20T10:02:30.771Z,12.04
2023-02-20T10:05:29.067Z,12.02
2023-02-20T10:08:26.828Z,11.96
2023-02-20T10:11:25.167Z,11.88
2023-02-20T10:14:22.664Z,11.80
2023-02-20T10:17:20.267Z,11.75
2023-02-20T10:20:18.034Z,11.73
2023-02-20T10:23:15.511Z,11.75
2023-02-20T10:26:13.386Z,11.84
2023-02-20T10:29:11.077Z,11.99
2023-02-20T10:32:08.926Z,12.13
2023-02-20T10:35:06.419Z,12.29
2023-02-20T10:38:04.225Z,12.47
2023-02-20T10:41:02.238Z,12.89
2023-02-20T10:43:59.706Z,13.34
2023-02-20T10:46:57.579Z,13.48
2023-02-20T10:49:55.073Z,13.60
2023-02-20T10:52:52.967Z,13.78
2023-02-20T10:55:50.723Z,13.93
2023-02-20T10:58:48.197Z,14.04
2023-02-20T11:01:46.248Z,14.21
2023-02-20T11:04:43.811Z,14.64
2023-02-20T11:07:41.595Z,15.79
2023-02-20T11:10:39.612Z,17.23
2023-02-20T11:13:37.302Z,18.20
2023-02-20T11:16:35.401Z,18.71
2023-02-20T11:19:32.922Z,19.16
2023-02-20T11:22:30.635Z,19.71
2023-02-20T11:25:28.106Z,20.28
2023-02-20T11:28:25.954Z,20.94
2023-02-20T11:31:23.536Z,21.60
2023-02-20T11:34:21.289Z,22.03
2023-02-20T11:37:18.767Z,21.81
2023-02-20T11:40:16.476Z,21.12
2023-02-20T11:43:14.200Z,20.33
2023-02-20T11:46:12.025Z,19.82
2023-02-20T11:49:10.454Z,19.40
2023-02-20T11:52:07.911Z,18.91
2023-02-20T11:55:05.761Z,18.38
2023-02-20T11:58:03.726Z,17.96
2023-02-20T12:01:01.200Z,17.77
2023-02-20T12:04:00.717Z,17.73
2023-02-20T12:06:58.191Z,17.99
2023-02-20T12:09:56.013Z,18.40
2023-02-20T12:12:53.458Z,18.78
2023-02-20T12:15:51.274Z,19.13
2023-02-20T12:18:49.009Z,19.44
2023-02-20T12:21:46.477Z,19.56
2023-02-20T12:24:44.245Z,19.82
2023-02-20T12:27:41.709Z,20.16
2023-02-20T12:30:39.439Z,20.33
2023-02-20T12:33:36.937Z,20.36
2023-02-20T12:36:34.688Z,20.35
2023-02-20T12:39:32.202Z,20.20
2023-02-20T12:42:30.224Z,20.06
2023-02-20T12:45:27.731Z,19.83
2023-02-20T12:48:25.467Z,19.37
2023-02-20T12:51:23.131Z,18.75
2023-02-20T12:54:20.738Z,18.16
2023-02-20T12:57:18.493Z,17.83
2023-02-20T13:00:15.961Z,17.55
2023-02-20T13:03:16.374Z,17.25
2023-02-20T13:06:14.257Z,16.98
2023-02-20T13:09:12.055Z,16.73
2023-02-20T13:12:09.506Z,16.57
2023-02-20T13:15:09.039Z,16.48
2023-02-20T13:18:06.683Z,16.38
2023-02-20T13:21:04.435Z,16.18
2023-02-20T13:24:02.132Z,16.01
2023-02-20T13:26:59.596Z,15.88
2023-02-20T13:29:57.254Z,15.82
2023-02-20T13:32:54.725Z,15.82
2023-02-20T13:35:52.490Z,15.87
2023-02-20T13:38:50.260Z,15.95
2023-02-20T13:41:47.699Z,15.98
2023-02-20T13:44:47.421Z,15.96
2023-02-20T13:47:44.900Z,15.89
2023-02-20T13:50:42.665Z,15.77
2023-02-20T13:53:40.548Z,15.64
2023-02-20T13:56:38.036Z,15.51
2023-02-20T13:59:37.808Z,15.39
2023-02-20T14:02:35.541Z,15.31
2023-02-20T14:05:33.346Z,15.26
2023-02-20T14:08:30.813Z,15.21
2023-02-20T14:11:28.644Z,15.19
2023-02-20T14:14:26.109Z,15.16
2023-02-20T14:17:23.905Z,15.12
2023-02-20T14:20:23.578Z,15.12
2023-02-20T14:23:21.094Z,15.11
2023-02-20T14:26:18.748Z,15.07
2023-02-20T14:29:16.220Z,15.08
2023-02-20T14:32:14.005Z,15.12
2023-02-20T14:35:11.748Z,15.20
2023-02-20T14:38:09.199Z,15.26
2023-02-20T14:41:06.826Z,15.28
2023-02-20T14:44:04.324Z,15.24
2023-02-20T14:47:03.225Z,15.20
2023-02-20T14:50:00.800Z,15.15
2023-02-20T14:52:58.416Z,15.09
2023-02-20T14:55:55.946Z,15.00
2023-02-20T14:58:53.736Z,14.92
2023-02-20T15:01:51.510Z,14.82
2023-02-20T15:04:49.045Z,14.73
2023-02-20T15:07:46.927Z,14.62
2023-02-20T15:10:44.436Z,14.52
2023-02-20T15:13:43.476Z,14.44
2023-02-20T15:16:42.685Z,14.36
2023-02-20T15:19:40.697Z,14.28
2023-02-20T15:22:39.684Z,14.22
2023-02-20T15:25:37.393Z,14.17
2023-02-20T15:28:37.276Z,14.12
2023-02-20T15:31:34.796Z,14.08
2023-02-20T15:34:34.505Z,14.04
2023-02-20T15:37:38.313Z,14.00
2023-02-20T15:40:45.094Z,13.96
2023-02-20T15:43:47.966Z,13.93
2023-02-20T15:46:49.486Z,13.88
2023-02-20T15:49:48.054Z,13.82
2023-02-20T15:52:45.766Z,13.79
2023-02-20T15:55:43.876Z,13.74
2023-02-20T15:58:43.601Z,13.68
2023-02-20T16:01:41.946Z,13.61
2023-02-20T16:04:39.709Z,13.54
2023-02-20T16:07:37.621Z,13.46
2023-02-20T16:10:35.484Z,13.40
2023-02-20T16:13:32.964Z,13.36
2023-02-20T16:16:31.405Z,13.31
2023-02-20T16:19:41.882Z,13.25
2023-02-20T16:22:40.717Z,13.19
2023-02-20T16:25:38.742Z,13.13
2023-02-20T16:28:36.505Z,13.07
2023-02-20T16:31:34.758Z,13.02
2023-02-20T16:34:33.124Z,12.97
2023-02-20T16:37:34.166Z,12.92
2023-02-20T16:40:32.245Z,12.90
2023-02-20T16:43:32.080Z,12.86
2023-02-20T16:46:38.320Z,12.84
2023-02-20T16:49:41.275Z,12.82
2023-02-20T16:52:40.473Z,12.80
2023-02-20T16:55:38.653Z,12.77
2023-02-20T16:58:36.495Z,12.77
2023-02-20T17:01:35.574Z,12.75
2023-02-20T17:04:38.087Z,12.73
2023-02-20T17:07:35.838Z,12.70
2023-02-20T17:10:33.739Z,12.69
2023-02-20T17:13:31.664Z,12.66
2023-02-20T17:16:31.643Z,12.64
2023-02-20T17:19:33.814Z,12.63
2023-02-20T17:22:33.514Z,12.61
2023-02-20T17:25:35.584Z,12.60
2023-02-20T17:28:33.499Z,12.59
2023-02-20T17:31:31.997Z,12.57
2023-02-20T17:34:31.216Z,12.55
2023-02-20T17:37:31.241Z,12.53
2023-02-20T17:40:30.551Z,12.51
2023-02-20T17:43:29.547Z,12.49
2023-02-20T17:46:32.775Z,12.45
2023-02-20T17:49:30.816Z,12.43
2023-02-20T17:52:29.920Z,12.42
2023-02-20T17:55:28.046Z,12.43
2023-02-20T17:58:26.372Z,12.43
2023-02-20T18:01:27.701Z,12.43
2023-02-20T18:04:44.627Z,12.44
2023-02-20T18:07:47.934Z,12.46
2023-02-20T18:10:49.652Z,12.47
2023-02-20T18:13:49.692Z,12.48
2023-02-20T18:16:48.679Z,12.48
2023-02-20T18:19:48.760Z,12.48
2023-02-20T18:22:49.030Z,12.48
2023-02-20T18:25:47.748Z,12.45
2023-02-20T18:28:47.227Z,12.44
2023-02-20T18:31:46.240Z,12.43
2023-02-20T18:34:45.466Z,12.42
2023-02-20T18:37:44.916Z,12.43
2023-02-20T18:40:49.381Z,12.42
2023-02-20T18:43:47.950Z,12.40
2023-02-20T18:46:48.088Z,12.40
2023-02-20T18:49:51.161Z,12.39
2023-02-20T18:52:50.177Z,12.37
2023-02-20T18:55:48.892Z,12.35
2023-02-20T18:58:47.772Z,12.35
2023-02-20T19:01:48.390Z,12.35
2023-02-20T19:04:46.643Z,12.35
2023-02-20T19:07:47.724Z,12.34
2023-02-20T19:10:47.530Z,12.34
2023-02-20T19:13:46.431Z,12.34
2023-02-20T19:16:46.426Z,12.34
2023-02-20T19:19:44.639Z,12.35
2023-02-20T19:22:42.533Z,12.36
2023-02-20T19:25:42.653Z,12.37
2023-02-20T19:28:43.172Z,12.39
2023-02-20T19:31:41.944Z,12.41
2023-02-20T19:34:44.153Z,12.43
2023-02-20T19:37:42.081Z,12.43
2023-02-20T19:40:41.355Z,12.44
2023-02-20T19:43:41.821Z,12.46
2023-02-20T19:46:39.900Z,12.49
2023-02-20T19:49:40.005Z,12.49
2023-02-20T19:52:39.241Z,12.50
2023-02-20T19:55:38.617Z,12.50
2023-02-20T19:58:40.111Z,12.51
2023-02-20T20:01:45.113Z,12.53
2023-02-20T20:04:45.019Z,12.54
2023-02-20T20:07:42.592Z,12.57
2023-02-20T20:10:40.967Z,12.58
2023-02-20T20:13:39.864Z,12.60
2023-02-20T20:16:44.493Z,12.61
2023-02-20T20:19:58.516Z,12.63
2023-02-20T20:22:58.195Z,12.64
2023-02-20T20:25:59.659Z,12.67
2023-02-20T20:29:09.617Z,12.69
2023-02-20T20:32:16.313Z,12.72
2023-02-20T20:35:18.309Z,12.74
2023-02-20T20:38:31.722Z,12.76
2023-02-20T20:41:44.046Z,12.78
2023-02-20T20:44:53.281Z,12.80
2023-02-20T20:47:57.833Z,12.79
2023-02-20T20:50:57.034Z,12.80
2023-02-20T20:53:57.024Z,12.82
2023-02-20T20:56:55.023Z,12.84
2023-02-20T20:59:57.345Z,12.84
2023-02-20T21:02:57.091Z,12.82
2023-02-20T21:06:00.091Z,12.83
2023-02-20T21:09:03.776Z,12.82
2023-02-20T21:12:04.707Z,12.83
2023-02-20T21:15:04.585Z,12.83
2023-02-20T21:18:03.756Z,12.82
2023-02-20T21:21:01.485Z,12.80
2023-02-20T21:23:59.783Z,12.79
2023-02-20T21:26:59.086Z,12.77
2023-02-20T21:29:56.807Z,12.74
2023-02-20T21:32:54.320Z,12.73
2023-02-20T21:35:52.090Z,12.72
2023-02-20T21:38:49.607Z,12.70
2023-02-20T21:42:05.225Z,12.68
2023-02-20T21:45:04.711Z,12.67
2023-02-20T21:48:02.744Z,12.65
2023-02-20T21:51:00.689Z,12.63
2023-02-20T21:53:58.385Z,12.61
2023-02-20T21:56:56.850Z,12.59
2023-02-20T21:59:53.154Z,12.56
2023-02-20T22:02:50.751Z,12.53
2023-02-20T22:05:47.062Z,12.50
2023-02-20T22:09:02.444Z,12.48
2023-02-20T22:12:17.816Z,12.44
2023-02-20T22:15:32.933Z,12.43
2023-02-20T22:18:48.168Z,12.42
2023-02-20T22:22:03.342Z,12.39
2023-02-20T22:25:18.723Z,12.37
2023-02-20T22:28:34.849Z,12.34
2023-02-20T22:31:49.940Z,12.33
2023-02-20T22:35:13.938Z,12.32
2023-02-20T22:38:29.044Z,12.29
2023-02-20T22:41:44.655Z,12.28
2023-02-20T22:45:00.220Z,12.26
2023-02-20T22:48:15.563Z,12.25
2023-02-20T22:51:32.571Z,12.24
2023-02-20T22:55:03.698Z,12.21
2023-02-20T22:58:19.788Z,12.19
2023-02-20T23:01:35.491Z,12.19
2023-02-20T23:04:50.972Z,12.17
2023-02-20T23:08:06.668Z,12.15
2023-02-20T23:11:22.126Z,12.13
2023-02-20T23:14:37.152Z,12.09
2023-02-20T23:17:52.571Z,12.07
2023-02-20T23:21:07.733Z,12.06
2023-02-20T23:24:23.551Z,12.05
2023-02-20T23:27:38.924Z,12.03
2023-02-20T23:30:54.069Z,12.00
2023-02-20T23:34:09.376Z,11.99
2023-02-20T23:37:24.576Z,11.96
2023-02-20T23:40:40.236Z,11.93
2023-02-20T23:43:55.571Z,11.89
2023-02-20T23:47:11.307Z,11.87
2023-02-20T23:50:26.570Z,11.84
2023-02-20T23:53:41.620Z,11.82
2023-02-20T23:56:57.017Z,11.80
